Terminal Aerodrome Forecast
Issued by NWS Charleston, WV

Current Version | Previous Version | Text Only | Print | Product List | Glossary Off
Versions: 1 2 3 4 5 6 7 8 9 10 11 12 13 14 15 16 17 18 19 20 21 22 23 24 25 26 27 28 29 30 31 32

000
FTUS41 KRLX 221740
TAFPKB
TAF
KPKB 221740Z 2218/2318 22007KT 6SM TSRA BKN045CB
     FM221900 22008KT 6SM -SHRA VCTS BKN035CB
      TEMPO 2219/2223 3SM TSRA OVC025CB
     FM230000 22007KT 5SM SHRA VCTS BKN025CB
     FM230800 22006KT 6SM SHRA VCTS BKN030CB
     FM231100 22007KT P6SM BKN030=

USA.gov is the U.S. government's official web portal to all federal, state and local government web resources and services.